Lantana, Texas
Current Conditions -  °F | °C
As of 9:53 PM on Friday 24 Oct 2014 (Local Time) from KDTO Reporting Station
Clear Clear  
Wind Chill: 69°   Ceiling: Unl
Heat Index: 69°   Visibility: 10mi
Dew Point: 61°   Wind: 8mph
Humidity: 75%   Direction: 170°S
Pressure: 30.08"   Gusts: NA
Location:  33.108°N, 97.1641°W
Report Text: KDTO 250253Z 17007KT 10SM CLR 21/16 A3008 RMK AO2 SLP179 T02060161 51008
Loading
Personal Weather Stations






























Interactive Weather Map
Tropical Storm Tracking
New forecast layout! Learn more

10-Day Weather Forecast

Advertisements
Track Severe Weather on mobile